Time;durP1;ratioP1;P1;durP2;ratioP2;P2;SDS_P1;SDS_P2;PMS_P1;PMS_P2;Temp;Humidity;BMP_temperature;BMP_pressure;BME280_temperature;BME280_humidity;BME280_pressure;Samples;Min_cycle;Max_cycle;Signal;HPM_P1;HPM_P2
2023/11/17 00:01:28;;;;;;;13.05;6.85;;;6.40;99.90;;;;;;5055317;28;20040;-74
2023/11/17 00:03:55;;;;;;;20.30;6.50;;;6.40;99.90;;;;;;5065521;28;20565;-74
2023/11/17 00:06:24;;;;;;;17.55;7.80;;;6.40;99.90;;;;;;5066514;28;20052;-72
2023/11/17 00:08:52;;;;;;;15.25;5.82;;;6.50;99.90;;;;;;5066168;28;20552;-72
2023/11/17 00:11:19;;;;;;;12.93;6.47;;;6.50;99.90;;;;;;5066115;28;20048;-73
2023/11/17 00:13:46;;;;;;;12.40;6.20;;;6.40;99.90;;;;;;5048382;28;20076;-72
2023/11/17 00:16:12;;;;;;;15.85;5.22;;;6.50;99.90;;;;;;5066606;28;20060;-72
2023/11/17 00:18:39;;;;;;;18.20;6.60;;;6.40;99.90;;;;;;5065814;28;20044;-73
2023/11/17 00:21:06;;;;;;;9.82;4.38;;;6.40;99.90;;;;;;5066001;28;20399;-71
2023/11/17 00:23:33;;;;;;;9.85;5.03;;;6.30;99.90;;;;;;5070151;28;20048;-73
2023/11/17 00:25:59;;;;;;;11.10;5.68;;;6.30;99.90;;;;;;5070139;28;20053;-72
2023/11/17 00:28:26;;;;;;;14.50;5.57;;;6.30;99.90;;;;;;5070624;28;20126;-73
2023/11/17 00:30:53;;;;;;;15.30;6.10;;;6.30;99.90;;;;;;5070178;28;20055;-73
2023/11/17 00:33:20;;;;;;;11.70;4.63;;;6.20;99.90;;;;;;5069916;28;20045;-73
2023/11/17 00:35:47;;;;;;;19.10;6.60;;;6.30;99.90;;;;;;5069891;28;20037;-72
2023/11/17 00:38:13;;;;;;;22.45;5.85;;;6.20;99.90;;;;;;5069897;28;20056;-72
2023/11/17 00:40:41;;;;;;;15.02;6.25;;;6.20;99.90;;;;;;5069335;28;20102;-73
2023/11/17 00:43:09;;;;;;;9.35;4.75;;;6.20;99.90;;;;;;5069977;28;20048;-72
2023/11/17 00:45:36;;;;;;;8.90;4.45;;;6.10;99.90;;;;;;5069784;28;20044;-72
2023/11/17 00:48:03;;;;;;;16.02;5.35;;;6.20;99.90;;;;;;5051312;28;20060;-72
2023/11/17 00:50:32;;;;;;;12.55;4.90;;;6.20;99.90;;;;;;5069284;28;20052;-72
2023/11/17 00:53:05;;;;;;;10.40;4.32;;;6.20;99.90;;;;;;4705830;28;10000401;-72
2023/11/17 00:55:32;;;;;;;11.40;4.18;;;6.50;99.90;;;;;;5068493;28;20052;-73
2023/11/17 00:57:59;;;;;;;13.70;4.65;;;6.20;99.90;;;;;;5069672;28;20087;-73
2023/11/17 01:00:27;;;;;;;10.02;4.57;;;6.20;99.90;;;;;;5069243;28;20050;-73
2023/11/17 01:02:55;;;;;;;14.20;4.32;;;6.20;99.90;;;;;;5069468;28;20462;-73
2023/11/17 01:05:22;;;;;;;12.93;4.90;;;6.20;99.90;;;;;;5072694;28;20287;-73
2023/11/17 01:07:48;;;;;;;8.02;3.97;;;6.20;99.90;;;;;;5069553;28;20462;-73
2023/11/17 01:10:16;;;;;;;16.23;5.20;;;6.20;99.90;;;;;;5051611;28;20446;-74
2023/11/17 01:12:43;;;;;;;13.27;5.32;;;6.30;99.90;;;;;;5068023;28;20056;-74
2023/11/17 01:15:13;;;;;;;12.02;4.72;;;6.80;99.90;;;;;;5069345;28;20052;-74
2023/11/17 01:17:42;;;;;;;15.13;4.45;;;6.40;99.90;;;;;;5068816;28;20048;-74
2023/11/17 01:20:10;;;;;;;9.90;4.20;;;6.40;99.90;;;;;;5069559;28;20045;-73
2023/11/17 01:22:37;;;;;;;12.20;4.10;;;6.40;99.90;;;;;;5068686;28;20053;-74
2023/11/17 01:25:04;;;;;;;9.65;3.45;;;6.40;99.90;;;;;;5069218;28;20108;-74
2023/11/17 01:27:31;;;;;;;9.38;2.65;;;6.40;99.90;;;;;;5068590;28;20091;-72
2023/11/17 01:29:57;;;;;;;6.10;2.00;;;6.50;99.90;;;;;;5069426;28;20049;-73
2023/11/17 01:32:24;;;;;;;5.78;2.30;;;6.50;99.90;;;;;;5068391;28;20406;-73
2023/11/17 01:34:54;;;;;;;9.90;2.20;;;6.50;99.90;;;;;;5066786;28;20048;-74
2023/11/17 01:37:20;;;;;;;9.95;1.65;;;6.50;99.90;;;;;;5050607;28;20044;-74
2023/11/17 01:39:47;;;;;;;4.18;1.60;;;6.60;99.90;;;;;;5069149;28;20055;-75
2023/11/17 01:42:14;;;;;;;9.02;1.80;;;6.70;99.90;;;;;;5068629;28;20040;-74
2023/11/17 01:44:41;;;;;;;10.00;2.00;;;6.60;99.90;;;;;;5067033;28;20113;-76
2023/11/17 01:47:08;;;;;;;8.00;1.90;;;6.70;99.90;;;;;;5068656;28;20044;-74
2023/11/17 01:49:35;;;;;;;4.47;1.73;;;6.60;99.90;;;;;;5050381;28;20064;-74
2023/11/17 01:52:04;;;;;;;4.00;1.48;;;6.60;99.90;;;;;;5036493;28;20214;-74
2023/11/17 01:54:32;;;;;;;6.00;1.58;;;6.50;99.90;;;;;;5068313;28;20048;-74
2023/11/17 01:56:59;;;;;;;3.92;1.50;;;6.50;99.90;;;;;;5051119;28;20057;-75
2023/11/17 01:59:26;;;;;;;12.00;1.67;;;6.40;99.90;;;;;;5068500;28;20100;-74
2023/11/17 02:01:53;;;;;;;3.22;1.73;;;6.40;99.90;;;;;;5068205;28;20072;-73
2023/11/17 02:04:19;;;;;;;3.90;1.50;;;6.40;99.90;;;;;;5067900;28;20052;-74
2023/11/17 02:07:12;;;;;;;4.28;1.15;;;6.40;99.90;;;;;;5068564;28;20076;-74
2023/11/17 02:09:55;;;;;;;4.30;1.42;;;6.30;99.90;;;;;;5046929;28;20106;-73
2023/11/17 02:12:29;;;;;;;6.25;1.38;;;6.30;99.90;;;;;;5035885;28;20060;-73
2023/11/17 02:14:56;;;;;;;8.77;1.27;;;6.30;99.90;;;;;;5065362;28;20048;-72
2023/11/17 02:17:28;;;;;;;5.28;1.58;;;6.20;99.90;;;;;;5050564;28;20048;-73
2023/11/17 02:19:59;;;;;;;2.55;1.00;;;6.20;99.90;;;;;;5050746;28;20041;-73
2023/11/17 02:22:30;;;;;;;2.70;1.60;;;6.10;99.90;;;;;;5034816;28;20053;-74
2023/11/17 02:25:10;;;;;;;4.00;1.23;;;6.10;99.90;;;;;;5050023;28;20484;-74
2023/11/17 02:27:59;;;;;;;6.25;2.25;;;6.00;99.90;;;;;;5068376;28;20139;-74
2023/11/17 02:30:34;;;;;;;1.90;1.10;;;6.00;99.90;;;;;;5064957;28;20151;-74
2023/11/17 02:33:07;;;;;;;6.00;1.33;;;6.00;99.90;;;;;;5049995;28;20049;-73
2023/11/17 02:35:35;;;;;;;4.20;1.45;;;6.00;99.90;;;;;;5067326;28;20483;-73
2023/11/17 02:38:05;;;;;;;3.28;1.20;;;6.00;99.90;;;;;;5049705;28;20102;-73
2023/11/17 02:40:32;;;;;;;4.82;1.30;;;6.00;99.90;;;;;;5066308;28;20626;-73
2023/11/17 02:42:59;;;;;;;3.45;0.82;;;6.00;99.90;;;;;;5050103;28;20052;-74
2023/11/17 02:45:26;;;;;;;2.30;0.80;;;5.90;99.90;;;;;;5067244;28;20118;-74
2023/11/17 02:47:57;;;;;;;1.05;0.85;;;5.80;99.90;;;;;;5049801;28;20105;-74
2023/11/17 02:50:38;;;;;;;4.47;1.15;;;5.80;99.90;;;;;;5069217;28;20077;-72
2023/11/17 02:53:17;;;;;;;4.22;1.23;;;5.80;99.90;;;;;;5058530;28;20148;-74
2023/11/17 02:55:44;;;;;;;4.03;0.98;;;5.80;99.90;;;;;;5044841;28;20325;-74
2023/11/17 02:58:12;;;;;;;2.72;0.90;;;5.70;99.90;;;;;;5033129;28;20140;-74
2023/11/17 03:00:39;;;;;;;1.83;0.60;;;5.70;99.90;;;;;;5049023;28;20464;-72
2023/11/17 03:03:06;;;;;;;2.42;1.00;;;5.70;99.90;;;;;;5033213;28;20049;-72
2023/11/17 03:05:35;;;;;;;3.58;1.05;;;5.70;99.90;;;;;;5049095;28;20048;-73
2023/11/17 03:08:02;;;;;;;2.10;0.70;;;5.80;99.90;;;;;;5067123;28;20037;-73
2023/11/17 03:10:29;;;;;;;3.35;0.68;;;5.70;99.90;;;;;;5066719;28;20110;-71
2023/11/17 03:12:56;;;;;;;4.03;0.70;;;5.70;99.90;;;;;;5066877;28;20047;-73
2023/11/17 03:15:24;;;;;;;1.08;0.50;;;5.70;99.90;;;;;;5067897;28;20055;-73
2023/11/17 03:17:51;;;;;;;3.85;1.83;;;5.70;99.90;;;;;;5066823;28;20131;-72
2023/11/17 03:20:19;;;;;;;2.67;0.70;;;5.70;99.90;;;;;;5066687;28;20049;-72
2023/11/17 03:22:46;;;;;;;2.22;0.95;;;5.70;99.90;;;;;;5067633;28;20044;-73
2023/11/17 03:25:17;;;;;;;4.47;0.70;;;5.70;99.90;;;;;;5052288;28;20040;-73
2023/11/17 03:27:44;;;;;;;4.30;1.15;;;6.00;99.90;;;;;;5049117;28;20048;-73
2023/11/17 03:30:12;;;;;;;2.60;0.80;;;5.70;99.90;;;;;;5032016;28;20261;-73
2023/11/17 03:32:38;;;;;;;6.15;1.17;;;5.70;99.90;;;;;;5066280;28;20487;-74
2023/11/17 03:35:06;;;;;;;3.92;1.10;;;5.70;99.90;;;;;;5048920;28;20146;-74
2023/11/17 03:37:33;;;;;;;1.52;0.82;;;5.60;99.90;;;;;;5066536;28;20044;-73
2023/11/17 03:40:06;;;;;;;1.35;0.80;;;5.70;99.90;;;;;;5049240;28;20419;-73
2023/11/17 03:42:34;;;;;;;4.57;0.88;;;5.70;99.90;;;;;;5049551;28;20305;-73
2023/11/17 03:45:07;;;;;;;5.03;1.33;;;5.60;99.90;;;;;;5066688;28;20102;-74
2023/11/17 03:47:37;;;;;;;5.50;1.55;;;5.60;99.90;;;;;;5066540;28;20056;-73
2023/11/17 03:50:05;;;;;;;5.07;1.27;;;5.60;99.90;;;;;;5066773;28;20049;-74
2023/11/17 03:52:32;;;;;;;2.58;1.00;;;5.60;99.90;;;;;;5048689;28;20066;-73
2023/11/17 03:55:00;;;;;;;3.53;1.30;;;5.60;99.90;;;;;;5039895;28;20135;-73
2023/11/17 03:57:28;;;;;;;3.90;1.42;;;5.60;99.90;;;;;;5063613;28;20048;-73
2023/11/17 03:59:57;;;;;;;4.13;2.22;;;5.50;99.90;;;;;;5052527;28;20133;-73
2023/11/17 04:02:23;;;;;;;3.20;1.27;;;5.50;99.90;;;;;;5052737;28;20063;-73
2023/11/17 04:04:50;;;;;;;5.35;1.27;;;5.40;99.90;;;;;;5068348;28;20153;-74
2023/11/17 04:07:18;;;;;;;4.72;1.50;;;5.40;99.90;;;;;;5052544;28;20095;-73
2023/11/17 04:09:47;;;;;;;3.10;1.40;;;5.90;99.90;;;;;;5069837;28;20131;-73
2023/11/17 04:12:15;;;;;;;2.78;1.45;;;5.40;99.90;;;;;;5050851;28;20461;-73
2023/11/17 04:14:42;;;;;;;3.70;1.52;;;5.40;99.90;;;;;;5052569;28;20052;-73
2023/11/17 04:17:10;;;;;;;4.78;1.27;;;5.30;99.90;;;;;;5069990;28;20097;-73
2023/11/17 04:19:37;;;;;;;2.85;1.25;;;5.40;99.90;;;;;;5069843;28;20388;-72
2023/11/17 04:22:06;;;;;;;6.13;1.02;;;5.40;99.90;;;;;;5083232;28;20454;-72
2023/11/17 04:24:33;;;;;;;4.53;1.42;;;5.50;99.90;;;;;;5069682;28;20452;-72
2023/11/17 04:27:00;;;;;;;2.83;1.30;;;5.40;99.90;;;;;;5070162;28;20120;-72
2023/11/17 04:29:27;;;;;;;7.40;1.83;;;5.50;99.90;;;;;;5069871;28;20133;-72
2023/11/17 04:31:54;;;;;;;2.60;1.33;;;5.50;99.90;;;;;;5052004;28;20060;-72
2023/11/17 04:34:22;;;;;;;5.03;1.70;;;5.60;99.90;;;;;;5069551;28;20051;-72
2023/11/17 04:36:49;;;;;;;2.83;1.20;;;5.50;99.90;;;;;;5074970;28;20048;-72
2023/11/17 04:39:23;;;;;;;6.68;1.88;;;5.50;99.90;;;;;;5069471;28;20050;-72
2023/11/17 04:41:51;;;;;;;7.05;1.75;;;5.40;99.90;;;;;;5053646;28;20133;-73
2023/11/17 04:44:18;;;;;;;9.43;2.83;;;5.50;99.90;;;;;;5069241;28;20059;-72
2023/11/17 04:46:45;;;;;;;6.13;1.52;;;5.50;99.90;;;;;;5051877;28;20049;-72
2023/11/17 04:49:15;;;;;;;6.18;1.60;;;5.50;99.90;;;;;;5051326;28;20052;-72
2023/11/17 04:51:47;;;;;;;10.13;1.65;;;5.50;99.90;;;;;;5069659;28;20059;-73
2023/11/17 04:54:15;;;;;;;2.30;1.20;;;5.40;99.90;;;;;;5051920;28;20131;-73
2023/11/17 04:56:42;;;;;;;8.57;1.52;;;5.40;99.90;;;;;;5051587;28;20055;-73
2023/11/17 04:59:11;;;;;;;10.70;1.70;;;5.40;99.90;;;;;;5069273;28;20053;-73
2023/11/17 05:01:39;;;;;;;3.40;1.45;;;5.40;99.90;;;;;;5069726;28;20051;-73
2023/11/17 05:04:07;;;;;;;13.13;3.03;;;5.40;99.90;;;;;;5051612;28;20048;-73
2023/11/17 05:06:36;;;;;;;9.07;2.03;;;5.40;99.90;;;;;;5051670;28;20041;-73
2023/11/17 05:09:10;;;;;;;7.78;1.60;;;5.40;99.90;;;;;;5068171;28;20048;-73
2023/11/17 05:11:37;;;;;;;5.70;1.67;;;5.40;99.90;;;;;;5068967;28;20045;-72
2023/11/17 05:14:07;;;;;;;6.32;1.42;;;5.40;99.90;;;;;;5069264;28;20048;-72
2023/11/17 05:16:35;;;;;;;6.50;1.83;;;5.40;99.90;;;;;;5052033;28;20056;-72
2023/11/17 05:19:05;;;;;;;6.53;1.98;;;5.40;99.90;;;;;;5068600;28;20036;-72
2023/11/17 05:21:32;;;;;;;4.65;1.30;;;5.40;99.90;;;;;;5069636;28;20044;-73
2023/11/17 05:24:00;;;;;;;5.40;2.35;;;5.40;99.90;;;;;;5051366;28;20048;-72
2023/11/17 05:26:26;;;;;;;6.72;2.13;;;5.40;99.90;;;;;;5048517;28;20041;-71
2023/11/17 05:28:53;;;;;;;4.35;1.40;;;5.30;99.90;;;;;;5067261;28;20052;-72
2023/11/17 05:31:21;;;;;;;3.88;1.48;;;5.40;99.90;;;;;;5069202;28;20036;-72
2023/11/17 05:33:48;;;;;;;4.78;2.05;;;5.30;99.90;;;;;;5069102;28;20114;-72
2023/11/17 05:36:15;;;;;;;3.97;1.98;;;5.30;99.90;;;;;;5050788;28;20044;-72
2023/11/17 05:38:42;;;;;;;3.60;1.35;;;5.30;99.90;;;;;;5044921;28;20044;-72
2023/11/17 05:41:08;;;;;;;5.68;2.05;;;5.40;99.90;;;;;;5063323;28;20080;-72
2023/11/17 05:43:35;;;;;;;5.93;1.67;;;5.40;99.90;;;;;;5065491;28;20060;-72
2023/11/17 05:46:02;;;;;;;5.68;1.98;;;5.30;99.90;;;;;;5065683;28;20494;-71
2023/11/17 05:48:29;;;;;;;8.27;2.17;;;5.30;99.90;;;;;;5061942;28;20055;-72
2023/11/17 05:50:57;;;;;;;6.00;1.70;;;5.30;99.90;;;;;;5066512;28;20049;-72
2023/11/17 05:53:23;;;;;;;9.23;2.25;;;5.30;99.90;;;;;;5065019;28;20549;-72
2023/11/17 05:55:50;;;;;;;7.07;2.00;;;5.30;99.90;;;;;;5049777;28;20179;-74
2023/11/17 05:58:17;;;;;;;4.35;1.42;;;5.20;99.90;;;;;;5067820;28;20377;-74
2023/11/17 06:00:44;;;;;;;4.63;2.95;;;5.20;99.90;;;;;;5068574;28;20086;-74
2023/11/17 06:03:12;;;;;;;4.75;1.70;;;5.20;99.90;;;;;;5067934;28;20052;-71
2023/11/17 06:05:39;;;;;;;4.15;1.92;;;5.20;99.90;;;;;;5059487;28;20056;-74
2023/11/17 06:08:06;;;;;;;9.05;2.22;;;5.20;99.90;;;;;;5067089;28;20052;-73
2023/11/17 06:10:33;;;;;;;4.72;1.70;;;5.20;99.90;;;;;;5065359;28;20492;-73
2023/11/17 06:13:00;;;;;;;5.65;1.90;;;5.10;99.90;;;;;;5068728;28;20036;-73
2023/11/17 06:15:27;;;;;;;5.13;2.05;;;5.10;99.90;;;;;;5068276;28;20049;-74
2023/11/17 06:17:55;;;;;;;6.28;2.40;;;5.10;99.90;;;;;;5063846;28;20044;-72
2023/11/17 06:20:25;;;;;;;5.13;2.30;;;5.10;99.90;;;;;;5067840;28;20055;-73
2023/11/17 06:22:52;;;;;;;6.45;4.30;;;5.10;99.90;;;;;;5067369;28;20067;-73
2023/11/17 06:25:19;;;;;;;5.25;2.17;;;5.00;99.90;;;;;;5068280;28;20126;-72
2023/11/17 06:27:46;;;;;;;3.97;2.10;;;5.10;99.90;;;;;;5066591;28;20045;-72
2023/11/17 06:30:14;;;;;;;5.05;2.22;;;5.00;99.90;;;;;;5057911;28;20501;-73
2023/11/17 06:32:41;;;;;;;6.10;2.47;;;5.00;99.90;;;;;;5067334;28;20090;-72
2023/11/17 06:35:09;;;;;;;11.27;2.80;;;5.00;99.90;;;;;;5067222;28;20041;-72
2023/11/17 06:37:36;;;;;;;9.77;2.45;;;5.10;99.90;;;;;;5065011;28;20056;-73
2023/11/17 06:40:09;;;;;;;11.73;4.55;;;5.00;99.90;;;;;;5033205;28;20466;-72
2023/11/17 06:42:36;;;;;;;8.00;2.30;;;4.90;99.90;;;;;;5066258;28;20040;-72
2023/11/17 06:45:04;;;;;;;6.53;2.60;;;5.00;99.90;;;;;;5065711;28;20492;-72
2023/11/17 06:47:32;;;;;;;4.97;2.30;;;4.90;99.90;;;;;;5049894;28;20052;-72
2023/11/17 06:49:59;;;;;;;5.75;2.30;;;4.90;99.90;;;;;;5066948;28;20041;-73
2023/11/17 06:52:27;;;;;;;4.78;2.63;;;4.90;99.90;;;;;;5063967;28;20048;-73
2023/11/17 06:54:54;;;;;;;4.20;1.98;;;5.00;99.90;;;;;;5056603;28;20282;-73
2023/11/17 06:57:21;;;;;;;7.57;2.78;;;5.00;99.90;;;;;;5067239;28;20506;-72
2023/11/17 06:59:48;;;;;;;6.07;3.13;;;5.00;99.90;;;;;;5067340;28;20060;-72
2023/11/17 07:02:15;;;;;;;13.60;4.68;;;5.00;99.90;;;;;;5066957;28;20044;-71
2023/11/17 07:04:42;;;;;;;9.98;3.17;;;5.00;99.90;;;;;;5065011;28;20072;-72
2023/11/17 07:07:09;;;;;;;6.93;2.30;;;4.90;99.90;;;;;;5052730;28;20140;-72
2023/11/17 07:09:38;;;;;;;9.30;2.42;;;4.90;99.90;;;;;;5061576;28;20040;-72
2023/11/17 07:12:06;;;;;;;6.32;2.78;;;4.90;99.90;;;;;;5063713;28;20044;-72
2023/11/17 07:14:33;;;;;;;11.13;3.25;;;4.90;99.90;;;;;;5061488;28;20044;-72
2023/11/17 07:17:04;;;;;;;14.00;3.15;;;4.90;99.90;;;;;;5038493;28;20048;-71
2023/11/17 07:19:34;;;;;;;10.02;2.90;;;5.00;99.90;;;;;;5064372;28;20197;-73
2023/11/17 07:22:02;;;;;;;9.77;2.75;;;4.90;99.90;;;;;;5049149;28;20048;-72
2023/11/17 07:24:29;;;;;;;7.55;2.95;;;4.90;99.90;;;;;;5066725;28;20419;-72
2023/11/17 07:26:56;;;;;;;8.80;3.13;;;5.00;99.90;;;;;;5064555;28;20059;-72
2023/11/17 07:29:25;;;;;;;14.70;3.75;;;4.90;99.90;;;;;;5065681;28;20094;-71
2023/11/17 07:31:54;;;;;;;14.02;3.53;;;4.90;99.90;;;;;;5063018;28;20049;-71
2023/11/17 07:34:21;;;;;;;7.00;2.90;;;5.00;99.90;;;;;;5048750;28;20573;-72
2023/11/17 07:36:48;;;;;;;4.07;2.40;;;5.00;99.90;;;;;;5063932;28;20055;-71
2023/11/17 07:39:18;;;;;;;8.23;3.05;;;4.90;99.90;;;;;;5047042;28;20491;-70
2023/11/17 07:41:46;;;;;;;13.13;3.35;;;5.00;99.90;;;;;;5063937;28;20060;-70
2023/11/17 07:44:13;;;;;;;15.85;5.22;;;5.00;99.90;;;;;;5065066;28;20044;-71
2023/11/17 07:46:40;;;;;;;13.02;3.63;;;5.00;99.90;;;;;;5065626;28;20165;-71
2023/11/17 07:49:10;;;;;;;7.78;3.40;;;5.00;99.90;;;;;;5065332;28;20529;-71
2023/11/17 07:51:37;;;;;;;12.25;4.88;;;5.00;99.90;;;;;;5066481;28;20090;-71
2023/11/17 07:54:04;;;;;;;22.42;4.60;;;5.00;99.90;;;;;;5049779;28;20062;-70
2023/11/17 07:56:31;;;;;;;6.32;2.78;;;5.10;99.90;;;;;;5060996;28;20048;-70
2023/11/17 07:58:59;;;;;;;10.38;4.35;;;5.10;99.90;;;;;;5065803;28;20044;-70
2023/11/17 08:01:26;;;;;;;8.60;2.63;;;5.10;99.90;;;;;;5065304;28;20063;-70
2023/11/17 08:03:53;;;;;;;7.22;2.63;;;5.10;99.90;;;;;;5066140;28;20072;-70
2023/11/17 08:06:20;;;;;;;14.90;4.20;;;5.00;99.90;;;;;;5063360;28;20911;-70
2023/11/17 08:08:48;;;;;;;6.07;3.17;;;5.10;99.90;;;;;;5022458;28;20200;-71
2023/11/17 08:11:15;;;;;;;10.02;3.25;;;5.20;99.90;;;;;;5061058;28;20075;-70
2023/11/17 08:13:42;;;;;;;7.07;3.20;;;5.20;99.90;;;;;;5066646;28;20040;-70
2023/11/17 08:16:10;;;;;;;5.72;2.25;;;5.20;99.90;;;;;;5067817;28;20150;-72
2023/11/17 08:18:38;;;;;;;7.63;3.00;;;5.20;99.90;;;;;;5069329;28;20052;-70
2023/11/17 08:21:06;;;;;;;7.32;2.60;;;5.20;99.90;;;;;;5048288;28;20577;-71
2023/11/17 08:23:33;;;;;;;9.55;3.55;;;5.20;99.90;;;;;;5067819;28;20419;-71
2023/11/17 08:26:00;;;;;;;6.82;2.33;;;5.20;99.90;;;;;;5045348;28;20037;-71
2023/11/17 08:28:28;;;;;;;10.50;3.15;;;5.30;99.90;;;;;;5049279;28;20059;-71
2023/11/17 08:30:57;;;;;;;9.15;3.17;;;5.30;99.90;;;;;;5047419;28;20059;-72
2023/11/17 08:33:24;;;;;;;7.22;2.83;;;5.30;99.90;;;;;;5050436;28;20059;-71
2023/11/17 08:35:52;;;;;;;5.38;3.00;;;5.40;99.90;;;;;;5033588;28;20135;-70
2023/11/17 08:38:20;;;;;;;14.35;4.55;;;5.40;99.90;;;;;;5068511;28;20044;-71
2023/11/17 08:40:47;;;;;;;9.90;3.33;;;5.40;99.90;;;;;;5068520;28;20049;-71
2023/11/17 08:43:18;;;;;;;13.65;2.80;;;5.40;99.90;;;;;;5069991;28;20051;-72
2023/11/17 08:45:47;;;;;;;9.73;3.97;;;5.40;99.90;;;;;;5071624;28;20079;-71
2023/11/17 08:48:14;;;;;;;7.90;3.00;;;5.40;99.90;;;;;;5070704;28;20466;-71
2023/11/17 08:50:42;;;;;;;11.52;3.03;;;5.50;99.90;;;;;;5071813;28;20189;-70
2023/11/17 08:53:09;;;;;;;9.07;2.72;;;5.50;99.90;;;;;;5054220;28;20044;-70
2023/11/17 08:55:36;;;;;;;8.68;2.85;;;5.50;99.90;;;;;;5071634;28;20507;-71
2023/11/17 08:58:04;;;;;;;8.02;3.47;;;5.50;99.90;;;;;;5071682;28;20037;-71
2023/11/17 09:00:31;;;;;;;7.75;2.40;;;5.60;99.90;;;;;;5072487;28;20052;-71
2023/11/17 09:02:58;;;;;;;7.95;3.17;;;5.60;99.90;;;;;;5053046;28;20052;-71
2023/11/17 09:05:25;;;;;;;8.68;3.08;;;5.70;99.90;;;;;;5071634;28;20075;-71
2023/11/17 09:07:52;;;;;;;12.98;2.72;;;5.70;99.90;;;;;;5072156;28;20067;-71
2023/11/17 09:10:22;;;;;;;6.45;2.65;;;5.70;99.90;;;;;;5054371;28;20072;-72
2023/11/17 09:12:49;;;;;;;8.32;3.05;;;5.80;99.90;;;;;;5071415;28;20682;-72
2023/11/17 09:15:19;;;;;;;9.05;3.03;;;5.80;99.90;;;;;;5063989;28;20717;-72
2023/11/17 09:17:51;;;;;;;7.68;3.38;;;5.80;99.90;;;;;;5071492;28;20043;-72
2023/11/17 09:20:21;;;;;;;8.32;2.50;;;5.90;99.90;;;;;;5051410;28;20067;-72
2023/11/17 09:22:49;;;;;;;8.00;3.15;;;6.00;99.90;;;;;;5053305;28;20052;-72
2023/11/17 09:25:17;;;;;;;19.67;4.60;;;6.00;99.90;;;;;;5053475;28;20517;-71
2023/11/17 09:27:46;;;;;;;10.30;3.78;;;6.10;99.90;;;;;;5053655;28;20064;-71
2023/11/17 09:30:14;;;;;;;7.07;2.60;;;6.10;99.90;;;;;;5058200;28;20553;-71
2023/11/17 09:32:46;;;;;;;8.98;3.28;;;6.20;99.90;;;;;;5057734;28;20045;-71
2023/11/17 09:35:15;;;;;;;4.68;2.50;;;6.30;99.90;;;;;;5054249;28;20188;-72
2023/11/17 09:37:49;;;;;;;11.80;2.92;;;6.30;99.90;;;;;;5053722;28;20040;-72
2023/11/17 09:40:20;;;;;;;11.13;2.63;;;6.40;99.90;;;;;;5071104;28;20500;-72
2023/11/17 09:42:50;;;;;;;6.57;2.72;;;6.40;99.90;;;;;;5071024;28;20074;-71
2023/11/17 09:45:27;;;;;;;6.95;2.17;;;6.50;99.90;;;;;;5065696;28;20048;-72
2023/11/17 09:47:58;;;;;;;5.32;2.78;;;6.50;99.90;;;;;;5053483;28;20127;-71
2023/11/17 09:50:29;;;;;;;17.55;2.97;;;6.50;99.90;;;;;;5047357;28;20665;-72
2023/11/17 09:52:57;;;;;;;8.70;2.35;;;6.50;99.90;;;;;;5070915;28;20131;-70
2023/11/17 09:55:28;;;;;;;8.10;2.33;;;6.60;99.90;;;;;;5070330;28;20131;-71
2023/11/17 09:58:16;;;;;;;10.02;2.88;;;6.80;99.90;;;;;;5072150;28;20539;-72
2023/11/17 10:00:45;;;;;;;10.00;2.55;;;6.80;99.90;;;;;;5016323;28;20524;-72
2023/11/17 10:03:15;;;;;;;7.57;2.80;;;6.90;99.90;;;;;;5029911;28;20431;-72
2023/11/17 10:05:43;;;;;;;8.32;2.15;;;6.90;99.90;;;;;;5031307;28;20049;-71
2023/11/17 10:08:15;;;;;;;14.75;4.22;;;6.90;99.90;;;;;;5031644;28;20053;-70
2023/11/17 10:10:49;;;;;;;17.63;3.05;;;7.00;99.90;;;;;;5022909;28;20053;-71
2023/11/17 10:13:18;;;;;;;6.55;2.65;;;7.00;99.90;;;;;;5031704;28;20060;-71
2023/11/17 10:15:46;;;;;;;8.48;2.55;;;7.10;99.90;;;;;;5029589;28;20041;-69
2023/11/17 10:18:20;;;;;;;11.73;2.05;;;7.10;99.90;;;;;;5031846;28;20099;-70
2023/11/17 10:20:48;;;;;;;4.07;2.10;;;7.10;99.90;;;;;;5031282;28;20053;-70
2023/11/17 10:23:15;;;;;;;9.85;2.83;;;7.20;99.90;;;;;;5031059;28;20480;-71
2023/11/17 10:25:43;;;;;;;11.63;2.83;;;7.30;99.90;;;;;;5028888;28;20104;-71
2023/11/17 10:28:10;;;;;;;10.50;2.45;;;7.40;99.90;;;;;;5029733;28;20052;-71
2023/11/17 10:30:37;;;;;;;8.05;2.75;;;7.40;99.90;;;;;;5028924;28;20052;-70
2023/11/17 10:33:16;;;;;;;4.85;1.92;;;7.40;99.90;;;;;;5030290;28;20050;-71
2023/11/17 10:36:00;;;;;;;11.32;2.90;;;7.50;99.90;;;;;;5028018;28;20053;-71
2023/11/17 10:38:27;;;;;;;9.88;2.65;;;7.50;99.90;;;;;;5004765;28;20069;-71
2023/11/17 10:40:54;;;;;;;7.97;1.95;;;7.60;99.90;;;;;;5029009;28;20056;-70
2023/11/17 10:43:21;;;;;;;9.38;2.03;;;7.70;99.90;;;;;;5028888;28;20041;-71
2023/11/17 10:45:48;;;;;;;12.50;3.38;;;7.70;99.90;;;;;;5030099;28;20053;-71
2023/11/17 10:48:16;;;;;;;15.38;4.13;;;7.70;99.90;;;;;;5012169;28;20038;-71
2023/11/17 10:50:43;;;;;;;11.00;2.25;;;7.70;99.90;;;;;;5029968;28;20054;-70
2023/11/17 10:53:18;;;;;;;11.95;2.63;;;7.80;99.90;;;;;;5029373;28;20429;-70
2023/11/17 10:55:45;;;;;;;9.63;2.65;;;7.80;99.90;;;;;;5028865;28;20042;-70
2023/11/17 10:58:15;;;;;;;15.32;2.67;;;7.90;99.90;;;;;;5021579;28;20087;-70
2023/11/17 11:00:56;;;;;;;6.45;2.17;;;7.90;99.90;;;;;;5052767;28;20187;-71
2023/11/17 11:03:23;;;;;;;12.45;3.42;;;8.00;99.90;;;;;;5069517;28;20040;-69
2023/11/17 11:05:51;;;;;;;9.90;2.50;;;8.10;99.90;;;;;;5050566;28;20052;-70
2023/11/17 11:08:18;;;;;;;12.60;3.80;;;8.20;99.90;;;;;;5052293;28;20170;-70
2023/11/17 11:10:50;;;;;;;19.13;5.38;;;8.20;99.90;;;;;;5056121;28;20501;-70
2023/11/17 11:13:17;;;;;;;7.57;2.00;;;8.30;99.90;;;;;;5070049;28;20105;-70
2023/11/17 11:15:44;;;;;;;14.90;2.70;;;8.30;99.90;;;;;;5051958;28;20045;-70
2023/11/17 11:18:15;;;;;;;14.10;2.47;;;8.40;99.90;;;;;;5051636;28;20553;-70
2023/11/17 11:20:45;;;;;;;11.30;2.63;;;8.40;99.90;;;;;;5066414;28;20084;-70
2023/11/17 11:23:15;;;;;;;12.00;1.92;;;8.40;99.90;;;;;;5069763;28;20044;-70
2023/11/17 11:25:43;;;;;;;12.48;2.88;;;8.50;99.90;;;;;;5051674;28;20056;-70
2023/11/17 11:28:12;;;;;;;12.05;2.30;;;8.60;99.90;;;;;;5068814;28;20040;-70
2023/11/17 11:30:39;;;;;;;10.18;2.42;;;8.60;99.90;;;;;;5051686;28;20056;-69
2023/11/17 11:33:11;;;;;;;10.85;3.75;;;8.60;99.90;;;;;;5068379;28;20505;-71
2023/11/17 11:35:40;;;;;;;9.52;2.47;;;8.60;99.90;;;;;;5069337;28;20606;-70
2023/11/17 11:38:09;;;;;;;17.58;2.55;;;8.70;99.90;;;;;;5067096;28;20041;-70
2023/11/17 11:40:37;;;;;;;14.90;3.45;;;8.70;99.90;;;;;;5041217;28;20052;-70
2023/11/17 11:43:04;;;;;;;10.35;2.28;;;8.80;99.90;;;;;;5069227;28;20045;-70
2023/11/17 11:45:34;;;;;;;12.23;2.05;;;8.80;99.90;;;;;;5050986;28;20052;-70
2023/11/17 11:48:02;;;;;;;21.73;2.78;;;8.90;99.90;;;;;;5069257;28;20048;-70
2023/11/17 11:50:34;;;;;;;12.88;3.15;;;8.90;99.90;;;;;;5035700;28;20048;-71
2023/11/17 11:53:24;;;;;;;15.35;3.28;;;8.90;99.90;;;;;;5049793;28;20109;-70
2023/11/17 11:56:14;;;;;;;14.52;2.47;;;9.00;99.90;;;;;;5039732;28;20059;-70
2023/11/17 11:58:45;;;;;;;10.02;2.35;;;9.00;99.90;;;;;;5049142;28;20079;-71
2023/11/17 12:01:16;;;;;;;16.25;2.97;;;9.10;99.90;;;;;;5062164;28;20475;-71
2023/11/17 12:03:51;;;;;;;13.05;2.53;;;9.10;99.90;;;;;;5069167;28;20043;-70
2023/11/17 12:06:28;;;;;;;9.52;2.78;;;9.20;99.90;;;;;;5040834;28;20053;-72
2023/11/17 12:08:56;;;;;;;16.02;2.28;;;9.20;99.90;;;;;;5048413;28;20150;-71
2023/11/17 12:11:27;;;;;;;12.57;2.75;;;9.20;99.90;;;;;;5069532;28;20044;-69
2023/11/17 12:13:54;;;;;;;8.30;2.65;;;9.30;99.90;;;;;;5050487;28;20588;-69
2023/11/17 12:16:28;;;;;;;11.40;2.05;;;9.30;99.90;;;;;;5068356;28;20541;-69
2023/11/17 12:18:57;;;;;;;;;;;9.40;99.90;;;;;;5053939;28;20048;-70
2023/11/17 12:21:24;;;;;;;10.68;2.20;;;9.40;99.90;;;;;;5071825;28;19959;-70
2023/11/17 12:24:04;;;;;;;11.85;2.75;;;9.40;99.90;;;;;;5070988;28;20723;-70
2023/11/17 12:26:31;;;;;;;15.38;2.88;;;9.50;99.90;;;;;;5067897;28;20060;-70
2023/11/17 12:28:59;;;;;;;13.93;3.33;;;9.60;99.90;;;;;;5052627;28;20186;-71
2023/11/17 12:31:27;;;;;;;17.45;3.47;;;9.50;99.90;;;;;;5072104;28;20102;-71
2023/11/17 12:33:54;;;;;;;12.30;2.17;;;9.60;99.90;;;;;;5070513;28;20055;-70
2023/11/17 12:36:22;;;;;;;12.75;2.83;;;9.60;99.90;;;;;;5070908;28;20647;-70
2023/11/17 12:39:03;;;;;;;8.85;2.28;;;9.70;99.90;;;;;;5071571;28;20117;-70
2023/11/17 12:41:30;;;;;;;18.30;2.17;;;9.70;99.90;;;;;;5071308;28;20761;-70
2023/11/17 12:43:57;;;;;;;12.25;2.28;;;9.70;99.90;;;;;;5036943;28;20045;-70
2023/11/17 12:46:27;;;;;;;9.32;2.13;;;9.80;99.90;;;;;;5053097;28;20055;-70
2023/11/17 12:48:54;;;;;;;16.77;2.22;;;9.80;99.90;;;;;;5071582;28;20053;-70
2023/11/17 12:51:25;;;;;;;15.10;2.35;;;9.90;99.90;;;;;;5048989;28;20131;-71
2023/11/17 12:53:53;;;;;;;9.23;3.17;;;9.90;99.90;;;;;;5071068;28;20473;-71
2023/11/17 12:56:20;;;;;;;13.23;2.40;;;9.90;99.90;;;;;;5030465;28;20523;-71
2023/11/17 12:58:48;;;;;;;9.25;3.58;;;9.90;99.90;;;;;;5068429;28;20086;-71
2023/11/17 13:01:19;;;;;;;12.77;2.40;;;10.00;99.90;;;;;;5053547;28;20044;-71